Nasudden, Sweden

10:49 AM CEST on May 23, 2015 (GMT +0200)
Visby | | Change Station
CLOSE
Current Station
Airport
Location: Visby Flygplats,
Elevation: 154 ft
Nearby Weather Stations

Elev 154 ft 57.66 °N, 18.35 °E | Updated 29 minutes ago

Clear
Clear
50 °F
Feels Like 50 °F
N
17
Wind Variable Wind from WSW

Today
High -- | Low -- °F
--% Chance of Precip.
Yesterday
High -- | Low -- °F
Precip. -- in
4:14 AM 9:14 PM
Waxing Crescent, 28% visible
Pressure 29.92 in
Visibility -9999.0 miles
Clouds
Dew Point 45 °F
Humidity 82%
Rainfall 0.00 in
Snow Depth Not available.
UV Not available.
Pollen Not available.
Air Quality Not available.
Flu Activity Not available.
METAR ESSV 230820Z 24015KT CAVOK 10/07 Q1013

More Conditions Fewer Conditions

Pressure 29.92 in
Visibility -9999.0 miles
Clouds
Dew Point 45 °F
Humidity 82%
Rainfall 0.00 in
Snow Depth Not available.
UV Not available.
Pollen Not available.
Air Quality Not available.
Flu Activity Not available.
METAR ESSV 230820Z 24015KT CAVOK 10/07 Q1013

More Conditions Fewer Conditions

10-Day Weather Forecast

Almanac

Astronomy

May. 23, 2015 Rise Set
Actual Time
Civil Twilight
Nautical Twilight
Astronomical Twilight
Moon
Length of Visible Light
Length of Day
Tomorrow will be .
, % of the Moon is Illuminated

Today's Extremes

Country Highs Country Lows

Community

WunderPhotos

Upload Photos

1,823,403 photos uploaded!

WunderBlogs® & News

Nearby

Air Quality

  Air Quality AQ Index Pollutant
Not available.

Snow Depth

Station Depth Elevation

Earthquake Activity

City Distance Mag. Time & Date
Minimum magnitude displayed is 2.5.

Coastal Water Temperatures

Place Temperature

Stations

Nearby Weather Stations

Station Location Temp. Windchill Dew Point Humidity Wind Precip. Elev Updated Type